Time,TemperatureF,DewpointF,PressureIn,WindDirection,WindDirectionDegrees,WindSpeedMPH,WindSpeedGustMPH,Humidity,HourlyPrecipIn,Conditions,Clouds,dailyrainin,SoftwareType,DateUTC
2013-01-10 00:00:00,35.2,30.0,27.66,NW,314,10.0,23.0,81,0.00,,,-99.99,Weather View 32 v60,2013-01-10 05:00:00,
2013-01-10 00:40:00,34.4,28.9,27.67,NW,313,7.0,19.0,80,0.00,,,-99.99,Weather View 32 v60,2013-01-10 05:40:00,
2013-01-10 01:00:00,33.7,27.9,27.67,NNW,329,3.0,18.0,79,0.00,,,-99.99,Weather View 32 v60,2013-01-10 06:00:00,
2013-01-10 01:40:00,33.1,26.7,27.69,NW,313,6.0,15.0,77,0.00,,,-99.99,Weather View 32 v60,2013-01-10 06:40:00,
2013-01-10 02:00:00,33.0,26.3,27.69,WNW,294,5.0,15.0,76,0.00,,,-99.99,Weather View 32 v60,2013-01-10 07:00:00,
2013-01-10 02:40:00,31.8,26.0,27.68,NNW,336,4.0,12.0,79,0.00,,,-99.99,Weather View 32 v60,2013-01-10 07:40:00,
2013-01-10 03:00:00,31.3,25.5,27.68,WNW,301,5.0,10.0,79,0.00,,,-99.99,Weather View 32 v60,2013-01-10 08:00:00,
2013-01-10 03:40:00,30.4,25.0,27.67,NW,311,7.0,8.0,80,0.00,,,-99.99,Weather View 32 v60,2013-01-10 08:40:00,
2013-01-10 04:00:00,30.1,25.0,27.67,NNW,336,1.0,8.0,81,0.00,,,-99.99,Weather View 32 v60,2013-01-10 09:00:00,
2013-01-10 04:20:00,29.6,25.1,27.67,WNW,298,2.0,8.0,83,0.00,,,-99.99,Weather View 32 v60,2013-01-10 09:20:00,
2013-01-10 04:40:00,28.3,24.4,27.67,WNW,289,0.0,8.0,85,0.00,,,-99.99,Weather View 32 v60,2013-01-10 09:40:00,
2013-01-10 05:00:00,28.5,24.8,27.68,WNW,289,0.0,8.0,86,0.00,,,-99.99,Weather View 32 v60,2013-01-10 10:00:00,
2013-01-10 05:20:00,28.5,25.4,27.69,WNW,289,1.0,3.0,88,0.00,,,-99.99,Weather View 32 v60,2013-01-10 10:20:00,
2013-01-10 05:40:00,28.5,25.1,27.70,WNW,296,0.0,4.0,87,0.00,,,-99.99,Weather View 32 v60,2013-01-10 10:40:00,
2013-01-10 06:00:00,28.3,25.5,27.71,WNW,303,1.0,5.0,89,0.00,,,-99.99,Weather View 32 v60,2013-01-10 11:00:00,
2013-01-10 06:20:00,28.3,25.2,27.71,WNW,297,2.0,5.0,88,0.00,,,-99.99,Weather View 32 v60,2013-01-10 11:20:00,
2013-01-10 06:40:00,27.6,24.8,27.72,WNW,292,0.0,5.0,89,0.00,,,-99.99,Weather View 32 v60,2013-01-10 11:40:00,
2013-01-10 07:00:00,28.5,25.9,27.72,WNW,291,0.0,4.0,90,0.00,,,-99.99,Weather View 32 v60,2013-01-10 12:00:00,
2013-01-10 07:20:00,28.5,25.7,27.73,WNW,291,0.0,3.0,89,0.00,,,-99.99,Weather View 32 v60,2013-01-10 12:20:00,
2013-01-10 07:40:00,31.0,27.3,27.74,WNW,291,0.0,2.0,86,0.00,,,-99.99,Weather View 32 v60,2013-01-10 12:40:00,
2013-01-10 08:00:00,35.7,29.5,27.75,WNW,290,2.0,2.0,78,0.00,,,-99.99,Weather View 32 v60,2013-01-10 13:00:00,
2013-01-10 08:20:00,36.4,28.9,27.75,WNW,290,1.0,3.0,74,0.00,,,-99.99,Weather View 32 v60,2013-01-10 13:20:00,
2013-01-10 08:40:00,39.5,29.4,27.75,WNW,299,0.0,4.0,67,0.00,,,-99.99,Weather View 32 v60,2013-01-10 13:40:00,
2013-01-10 09:00:00,39.1,28.7,27.76,WNW,299,1.0,4.0,66,0.00,,,-99.99,Weather View 32 v60,2013-01-10 14:00:00,
2013-01-10 09:20:00,38.9,28.1,27.77,WNW,298,2.0,4.0,65,0.00,,,-99.99,Weather View 32 v60,2013-01-10 14:20:00,
2013-01-10 09:40:00,43.1,29.7,27.76,WNW,295,0.0,2.0,59,0.00,,,-99.99,Weather View 32 v60,2013-01-10 14:40:00,
2013-01-10 10:00:00,45.7,30.0,27.76,WNW,289,2.0,3.0,54,0.00,,,-99.99,Weather View 32 v60,2013-01-10 15:00:00,
2013-01-10 10:20:00,42.6,25.7,27.75,SW,227,4.0,6.0,51,0.00,,,-99.99,Weather View 32 v60,2013-01-10 15:20:00,
2013-01-10 10:40:00,42.9,25.5,27.74,WSW,249,2.0,6.0,50,0.00,,,-99.99,Weather View 32 v60,2013-01-10 15:40:00,
2013-01-10 11:00:00,45.1,25.0,27.73,West,260,2.0,6.0,45,0.00,,,-99.99,Weather View 32 v60,2013-01-10 16:00:00,
2013-01-10 11:20:00,48.7,26.0,27.72,West,260,2.0,6.0,41,0.00,,,-99.99,Weather View 32 v60,2013-01-10 16:20:00,
2013-01-10 11:40:00,48.1,25.5,27.71,WSW,250,0.0,5.0,41,0.00,,,-99.99,Weather View 32 v60,2013-01-10 16:40:00,
2013-01-10 12:00:00,48.3,24.5,27.71,WSW,247,1.0,4.0,39,0.00,,,-99.99,Weather View 32 v60,2013-01-10 17:00:00,
2013-01-10 12:20:00,50.7,22.6,27.70,WSW,245,0.0,3.0,33,0.00,,,-99.99,Weather View 32 v60,2013-01-10 17:20:00,
2013-01-10 12:40:00,58.9,25.8,27.70,SW,226,0.0,3.0,28,0.00,,,-99.99,Weather View 32 v60,2013-01-10 17:40:00,
2013-01-10 13:00:00,55.2,22.6,27.69,SW,226,1.0,3.0,28,0.00,,,-99.99,Weather View 32 v60,2013-01-10 18:00:00,
2013-01-10 13:20:00,50.9,22.8,27.69,SW,225,0.0,3.0,33,0.00,,,-99.99,Weather View 32 v60,2013-01-10 18:20:00,
2013-01-10 13:40:00,50.8,24.8,27.68,SSW,204,0.0,2.0,36,0.00,,,-99.99,Weather View 32 v60,2013-01-10 18:40:00,
2013-01-10 14:00:00,51.3,21.6,27.68,South,181,0.0,5.0,31,0.00,,,-99.99,Weather View 32 v60,2013-01-10 19:00:00,
2013-01-10 14:20:00,48.8,18.7,27.67,SSW,208,1.0,5.0,30,0.00,,,-99.99,Weather View 32 v60,2013-01-10 19:20:00,
2013-01-10 14:40:00,47.6,21.9,27.67,SW,233,2.0,5.0,36,0.00,,,-99.99,Weather View 32 v60,2013-01-10 19:40:00,
2013-01-10 15:00:00,48.5,20.7,27.67,SSW,195,4.0,8.0,33,0.00,,,-99.99,Weather View 32 v60,2013-01-10 20:00:00,
2013-01-10 15:20:00,46.1,21.9,27.66,ENE,61,3.0,8.0,38,0.00,,,-99.99,Weather View 32 v60,2013-01-10 20:20:00,
2013-01-10 15:40:00,43.9,20.5,27.66,SE,132,1.0,8.0,39,0.00,,,-99.99,Weather View 32 v60,2013-01-10 20:40:00,
2013-01-10 16:00:00,42.8,21.8,27.65,ENE,57,2.0,7.0,43,0.00,,,-99.99,Weather View 32 v60,2013-01-10 21:00:00,
2013-01-10 16:20:00,41.8,23.0,27.65,South,186,1.0,7.0,47,0.00,,,-99.99,Weather View 32 v60,2013-01-10 21:20:00,
2013-01-10 16:40:00,41.5,24.2,27.65,ESE,118,2.0,7.0,50,0.00,,,-99.99,Weather View 32 v60,2013-01-10 21:40:00,
2013-01-10 17:00:00,40.7,25.8,27.65,SSW,209,2.0,7.0,55,0.00,,,-99.99,Weather View 32 v60,2013-01-10 22:00:00,
2013-01-10 17:20:00,40.1,25.6,27.65,South,169,2.0,7.0,56,0.00,,,-99.99,Weather View 32 v60,2013-01-10 22:20:00,
2013-01-10 17:40:00,40.0,25.5,27.66,SW,216,1.0,7.0,56,0.00,,,-99.99,Weather View 32 v60,2013-01-10 22:40:00,
2013-01-10 18:00:00,39.7,24.8,27.65,ENE,61,4.0,7.0,55,0.00,,,-99.99,Weather View 32 v60,2013-01-10 23:00:00,
2013-01-10 18:20:00,39.5,24.2,27.65,ESE,104,2.0,7.0,54,0.00,,,-99.99,Weather View 32 v60,2013-01-10 23:20:00,
2013-01-10 18:40:00,39.3,24.0,27.64,North,1,2.0,10.0,54,0.00,,,-99.99,Weather View 32 v60,2013-01-10 23:40:00,
2013-01-10 19:00:00,39.1,24.3,27.64,ENE,75,2.0,10.0,55,0.00,,,-99.99,Weather View 32 v60,2013-01-11 00:00:00,
2013-01-10 19:20:00,39.2,23.9,27.64,South,186,3.0,10.0,54,0.00,,,-99.99,Weather View 32 v60,2013-01-11 00:20:00,
2013-01-10 19:40:00,39.3,23.6,27.63,South,185,3.0,9.0,53,0.00,,,-99.99,Weather View 32 v60,2013-01-11 00:40:00,
2013-01-10 20:00:00,39.3,23.1,27.63,SSW,210,6.0,9.0,52,0.00,,,-99.99,Weather View 32 v60,2013-01-11 01:00:00,
2013-01-10 20:20:00,39.0,23.7,27.62,WSW,254,1.0,11.0,54,0.00,,,-99.99,Weather View 32 v60,2013-01-11 01:20:00,
2013-01-10 20:40:00,38.9,23.7,27.62,South,175,0.0,11.0,54,0.00,,,-99.99,Weather View 32 v60,2013-01-11 01:40:00,
2013-01-10 21:00:00,38.7,23.9,27.61,ESE,119,0.0,11.0,55,0.00,,,-99.99,Weather View 32 v60,2013-01-11 02:00:00,
2013-01-10 21:20:00,38.5,24.1,27.60,SSW,213,3.0,10.0,56,0.00,,,-99.99,Weather View 32 v60,2013-01-11 02:20:00,
2013-01-10 21:40:00,38.5,24.6,27.60,East,94,3.0,10.0,57,0.00,,,-99.99,Weather View 32 v60,2013-01-11 02:40:00,
2013-01-10 22:00:00,38.2,24.7,27.59,ENE,57,4.0,10.0,58,0.00,,,-99.99,Weather View 32 v60,2013-01-11 03:00:00,
2013-01-10 22:20:00,38.0,24.9,27.59,SE,132,3.0,9.0,59,0.00,,,-99.99,Weather View 32 v60,2013-01-11 03:20:00,
2013-01-10 22:40:00,37.7,25.1,27.58,ENE,73,4.0,10.0,60,0.00,,,-99.99,Weather View 32 v60,2013-01-11 03:40:00,
2013-01-10 23:20:00,37.9,25.2,27.57,SE,135,3.0,10.0,60,0.00,,,-99.99,Weather View 32 v60,2013-01-11 04:20:00,
2013-01-10 23:40:00,38.2,25.5,27.56,ENE,58,5.0,13.0,60,0.00,,,-99.99,Weather View 32 v60,2013-01-11 04:40:00,